sensor_id;sensor_type;location;lat;lon;timestamp;pressure;altitude;pressure_sealevel;temperature;humidity
14343;BME280;7255;53.596;9.960;2023-05-22T00:00:09;101540.00;;;18.31;nan
14343;BME280;7255;53.596;9.960;2023-05-22T00:02:37;101532.72;;;18.37;nan
14343;BME280;7255;53.596;9.960;2023-05-22T00:05:09;101529.66;;;18.28;nan
14343;BME280;7255;53.596;9.960;2023-05-22T00:07:36;101529.66;;;18.28;nan
14343;BME280;7255;53.596;9.960;2023-05-22T00:10:03;101527.91;;;18.17;nan
14343;BME280;7255;53.596;9.960;2023-05-22T00:12:30;101541.78;;;18.15;nan
14343;BME280;7255;53.596;9.960;2023-05-22T00:14:56;101526.16;;;18.05;nan
14343;BME280;7255;53.596;9.960;2023-05-22T00:17:24;101524.84;;;18.08;nan
14343;BME280;7255;53.596;9.960;2023-05-22T00:19:51;101533.88;;;18.14;nan
14343;BME280;7255;53.596;9.960;2023-05-22T00:22:19;101525.16;;;18.12;nan
14343;BME280;7255;53.596;9.960;2023-05-22T00:24:45;101535.91;;;18.01;nan
14343;BME280;7255;53.596;9.960;2023-05-22T00:27:11;101528.37;;;18.08;nan
14343;BME280;7255;53.596;9.960;2023-05-22T00:29:38;101529.06;;;17.77;nan
14343;BME280;7255;53.596;9.960;2023-05-22T00:32:05;101525.59;;;17.81;nan
14343;BME280;7255;53.596;9.960;2023-05-22T00:34:31;101513.91;;;17.81;nan
14343;BME280;7255;53.596;9.960;2023-05-22T00:36:57;101519.69;;;17.67;nan
14343;BME280;7255;53.596;9.960;2023-05-22T00:39:25;101519.09;;;17.60;nan
14343;BME280;7255;53.596;9.960;2023-05-22T00:41:51;101522.22;;;17.52;nan
14343;BME280;7255;53.596;9.960;2023-05-22T00:44:17;101520.06;;;17.54;nan
14343;BME280;7255;53.596;9.960;2023-05-22T00:46:44;101521.03;;;17.65;nan
14343;BME280;7255;53.596;9.960;2023-05-22T00:49:10;101521.03;;;17.65;nan
14343;BME280;7255;53.596;9.960;2023-05-22T00:51:36;101517.87;;;17.73;nan
14343;BME280;7255;53.596;9.960;2023-05-22T00:54:03;101515.91;;;17.68;nan
14343;BME280;7255;53.596;9.960;2023-05-22T00:56:32;101512.13;;;17.69;nan
14343;BME280;7255;53.596;9.960;2023-05-22T00:58:59;101512.25;;;17.80;nan
14343;BME280;7255;53.596;9.960;2023-05-22T01:01:25;101507.63;;;17.80;nan
14343;BME280;7255;53.596;9.960;2023-05-22T01:03:58;101515.91;;;17.68;nan
14343;BME280;7255;53.596;9.960;2023-05-22T01:06:26;101511.91;;;17.76;nan
14343;BME280;7255;53.596;9.960;2023-05-22T01:08:52;101518.34;;;17.87;nan
14343;BME280;7255;53.596;9.960;2023-05-22T01:11:22;101513.56;;;17.77;nan
14343;BME280;7255;53.596;9.960;2023-05-22T01:13:54;101506.06;;;17.62;nan
14343;BME280;7255;53.596;9.960;2023-05-22T01:16:29;101506.06;;;17.62;nan
14343;BME280;7255;53.596;9.960;2023-05-22T01:19:00;101510.03;;;17.55;nan
14343;BME280;7255;53.596;9.960;2023-05-22T01:21:36;101508.41;;;17.54;nan
14343;BME280;7255;53.596;9.960;2023-05-22T01:24:25;101502.16;;;17.53;nan
14343;BME280;7255;53.596;9.960;2023-05-22T01:27:14;101501.63;;;17.56;nan
14343;BME280;7255;53.596;9.960;2023-05-22T01:30:00;101503.12;;;17.47;nan
14343;BME280;7255;53.596;9.960;2023-05-22T01:32:31;101497.59;;;17.37;nan
14343;BME280;7255;53.596;9.960;2023-05-22T01:35:01;101500.34;;;17.42;nan
14343;BME280;7255;53.596;9.960;2023-05-22T01:37:28;101495.63;;;17.32;nan
14343;BME280;7255;53.596;9.960;2023-05-22T01:39:55;101497.44;;;17.26;nan
14343;BME280;7255;53.596;9.960;2023-05-22T01:42:23;101502.38;;;17.29;nan
14343;BME280;7255;53.596;9.960;2023-05-22T01:44:49;101503.56;;;17.17;nan
14343;BME280;7255;53.596;9.960;2023-05-22T01:47:16;101491.37;;;17.19;nan
14343;BME280;7255;53.596;9.960;2023-05-22T01:49:44;101499.44;;;17.14;nan
14343;BME280;7255;53.596;9.960;2023-05-22T01:52:19;101499.97;;;17.11;nan
14343;BME280;7255;53.596;9.960;2023-05-22T01:54:52;101500.09;;;17.21;nan
14343;BME280;7255;53.596;9.960;2023-05-22T01:57:26;101499.03;;;17.22;nan
14343;BME280;7255;53.596;9.960;2023-05-22T01:59:58;101502.81;;;17.21;nan
14343;BME280;7255;53.596;9.960;2023-05-22T02:02:31;101501.22;;;17.25;nan
14343;BME280;7255;53.596;9.960;2023-05-22T02:05:03;101501.41;;;17.19;nan
14343;BME280;7255;53.596;9.960;2023-05-22T02:07:31;101498.63;;;17.13;nan
14343;BME280;7255;53.596;9.960;2023-05-22T02:09:59;101494.37;;;17.01;nan
14343;BME280;7255;53.596;9.960;2023-05-22T02:12:27;101488.00;;;17.12;nan
14343;BME280;7255;53.596;9.960;2023-05-22T02:14:54;101485.13;;;17.19;nan
14343;BME280;7255;53.596;9.960;2023-05-22T02:17:20;101477.22;;;17.17;nan
14343;BME280;7255;53.596;9.960;2023-05-22T02:19:47;101477.72;;;17.14;nan
14343;BME280;7255;53.596;9.960;2023-05-22T02:22:15;101478.41;;;17.04;nan
14343;BME280;7255;53.596;9.960;2023-05-22T02:24:43;101473.47;;;17.01;nan
14343;BME280;7255;53.596;9.960;2023-05-22T02:27:11;101467.06;;;16.90;nan
14343;BME280;7255;53.596;9.960;2023-05-22T02:29:37;101464.31;;;16.85;nan
14343;BME280;7255;53.596;9.960;2023-05-22T02:32:05;101471.50;;;16.97;nan
14343;BME280;7255;53.596;9.960;2023-05-22T02:34:31;101463.78;;;16.88;nan
14343;BME280;7255;53.596;9.960;2023-05-22T02:36:57;101467.25;;;16.84;nan
14343;BME280;7255;53.596;9.960;2023-05-22T02:39:25;101467.06;;;16.90;nan
14343;BME280;7255;53.596;9.960;2023-05-22T02:41:51;101474.78;;;16.99;nan
14343;BME280;7255;53.596;9.960;2023-05-22T02:44:17;101457.53;;;16.88;nan
14343;BME280;7255;53.596;9.960;2023-05-22T02:46:44;101454.25;;;16.86;nan
14343;BME280;7255;53.596;9.960;2023-05-22T02:49:11;101458.88;;;16.85;nan
14343;BME280;7255;53.596;9.960;2023-05-22T02:51:38;101450.97;;;16.84;nan
14343;BME280;7255;53.596;9.960;2023-05-22T02:54:04;101456.72;;;16.87;nan
14343;BME280;7255;53.596;9.960;2023-05-22T02:56:32;101457.88;;;16.91;nan
14343;BME280;7255;53.596;9.960;2023-05-22T02:58:58;101458.44;;;16.93;nan
14343;BME280;7255;53.596;9.960;2023-05-22T03:01:25;101453.09;;;16.99;nan
14343;BME280;7255;53.596;9.960;2023-05-22T03:03:51;101456.84;;;16.98;nan
14343;BME280;7255;53.596;9.960;2023-05-22T03:06:18;101453.91;;;16.99;nan
14343;BME280;7255;53.596;9.960;2023-05-22T03:08:45;101447.16;;;17.02;nan
14343;BME280;7255;53.596;9.960;2023-05-22T03:11:12;101439.91;;;17.07;nan
14343;BME280;7255;53.596;9.960;2023-05-22T03:13:40;101441.53;;;17.08;nan
14343;BME280;7255;53.596;9.960;2023-05-22T03:16:06;101445.66;;;17.11;nan
14343;BME280;7255;53.596;9.960;2023-05-22T03:18:33;101436.44;;;17.12;nan
14343;BME280;7255;53.596;9.960;2023-05-22T03:21:00;101450.41;;;17.21;nan
14343;BME280;7255;53.596;9.960;2023-05-22T03:23:26;101453.84;;;17.16;nan
14343;BME280;7255;53.596;9.960;2023-05-22T03:25:52;101449.25;;;17.17;nan
14343;BME280;7255;53.596;9.960;2023-05-22T03:28:19;101450.06;;;17.17;nan
14343;BME280;7255;53.596;9.960;2023-05-22T03:30:47;101447.28;;;17.12;nan
14343;BME280;7255;53.596;9.960;2023-05-22T03:33:13;101448.94;;;17.13;nan
14343;BME280;7255;53.596;9.960;2023-05-22T03:35:39;101439.38;;;17.10;nan
14343;BME280;7255;53.596;9.960;2023-05-22T03:38:07;101440.56;;;17.15;nan
14343;BME280;7255;53.596;9.960;2023-05-22T03:40:34;101444.16;;;17.20;nan
14343;BME280;7255;53.596;9.960;2023-05-22T03:43:00;101444.00;;;17.10;nan
14343;BME280;7255;53.596;9.960;2023-05-22T03:45:26;101441.69;;;17.19;nan
14343;BME280;7255;53.596;9.960;2023-05-22T03:47:54;101440.03;;;17.18;nan
14343;BME280;7255;53.596;9.960;2023-05-22T03:50:20;101437.88;;;17.20;nan
14343;BME280;7255;53.596;9.960;2023-05-22T03:52:46;101429.31;;;17.28;nan
14343;BME280;7255;53.596;9.960;2023-05-22T03:55:13;101428.50;;;17.27;nan
14343;BME280;7255;53.596;9.960;2023-05-22T03:57:40;101435.06;;;17.31;nan
14343;BME280;7255;53.596;9.960;2023-05-22T04:00:07;101434.34;;;17.41;nan
14343;BME280;7255;53.596;9.960;2023-05-22T04:02:35;101434.03;;;17.38;nan
14343;BME280;7255;53.596;9.960;2023-05-22T04:05:05;101431.44;;;17.48;nan
14343;BME280;7255;53.596;9.960;2023-05-22T04:07:31;101450.53;;;17.31;nan
14343;BME280;7255;53.596;9.960;2023-05-22T04:09:58;101449.19;;;17.34;nan
14343;BME280;7255;53.596;9.960;2023-05-22T04:12:24;101436.31;;;17.46;nan
14343;BME280;7255;53.596;9.960;2023-05-22T04:14:50;101433.66;;;17.51;nan
14343;BME280;7255;53.596;9.960;2023-05-22T04:17:16;101438.38;;;17.61;nan
14343;BME280;7255;53.596;9.960;2023-05-22T04:19:43;101434.88;;;17.65;nan
14343;BME280;7255;53.596;9.960;2023-05-22T04:22:10;101436.78;;;17.87;nan
14343;BME280;7255;53.596;9.960;2023-05-22T04:24:37;101423.25;;;17.92;nan
14343;BME280;7255;53.596;9.960;2023-05-22T04:27:04;101432.09;;;18.04;nan
14343;BME280;7255;53.596;9.960;2023-05-22T04:29:30;101430.00;;;18.17;nan
14343;BME280;7255;53.596;9.960;2023-05-22T04:32:00;101418.16;;;18.33;nan
14343;BME280;7255;53.596;9.960;2023-05-22T04:34:26;101426.47;;;18.49;nan
14343;BME280;7255;53.596;9.960;2023-05-22T04:36:54;101435.53;;;18.64;nan
14343;BME280;7255;53.596;9.960;2023-05-22T04:39:21;101433.16;;;18.73;nan
14343;BME280;7255;53.596;9.960;2023-05-22T04:41:50;101438.44;;;18.90;nan
14343;BME280;7255;53.596;9.960;2023-05-22T04:44:16;101437.50;;;19.17;nan
14343;BME280;7255;53.596;9.960;2023-05-22T04:46:47;101451.94;;;19.12;nan
14343;BME280;7255;53.596;9.960;2023-05-22T04:49:13;101435.06;;;19.15;nan
14343;BME280;7255;53.596;9.960;2023-05-22T04:51:39;101436.72;;;19.27;nan
14343;BME280;7255;53.596;9.960;2023-05-22T04:54:06;101438.97;;;19.35;nan
14343;BME280;7255;53.596;9.960;2023-05-22T04:56:33;101434.84;;;19.32;nan
14343;BME280;7255;53.596;9.960;2023-05-22T04:59:00;101434.09;;;19.52;nan
14343;BME280;7255;53.596;9.960;2023-05-22T05:01:28;101438.50;;;19.69;nan
14343;BME280;7255;53.596;9.960;2023-05-22T05:03:55;101435.53;;;19.70;nan
14343;BME280;7255;53.596;9.960;2023-05-22T05:06:21;101429.78;;;19.67;nan
14343;BME280;7255;53.596;9.960;2023-05-22T05:08:47;101433.13;;;19.79;nan
14343;BME280;7255;53.596;9.960;2023-05-22T05:11:14;101432.59;;;19.82;nan
14343;BME280;7255;53.596;9.960;2023-05-22T05:13:41;101438.56;;;19.79;nan
14343;BME280;7255;53.596;9.960;2023-05-22T05:16:07;101436.41;;;19.81;nan
14343;BME280;7255;53.596;9.960;2023-05-22T05:18:34;101429.31;;;19.90;nan
14343;BME280;7255;53.596;9.960;2023-05-22T05:21:00;101435.31;;;19.87;nan
14343;BME280;7255;53.596;9.960;2023-05-22T05:23:26;101426.87;;;19.99;nan
14343;BME280;7255;53.596;9.960;2023-05-22T05:25:53;101433.97;;;19.90;nan
14343;BME280;7255;53.596;9.960;2023-05-22T05:28:19;101435.34;;;20.18;nan
14343;BME280;7255;53.596;9.960;2023-05-22T05:30:47;101441.34;;;20.25;nan
14343;BME280;7255;53.596;9.960;2023-05-22T05:33:14;101439.47;;;20.21;nan
14343;BME280;7255;53.596;9.960;2023-05-22T05:35:40;101436.19;;;20.18;nan
14343;BME280;7255;53.596;9.960;2023-05-22T05:38:06;101427.72;;;20.20;nan
14343;BME280;7255;53.596;9.960;2023-05-22T05:40:33;101440.25;;;20.42;nan
14343;BME280;7255;53.596;9.960;2023-05-22T05:42:59;101431.81;;;20.53;nan
14343;BME280;7255;53.596;9.960;2023-05-22T05:45:25;101430.44;;;20.56;nan
14343;BME280;7255;53.596;9.960;2023-05-22T05:47:53;101426.87;;;20.66;nan
14343;BME280;7255;53.596;9.960;2023-05-22T05:50:19;101429.00;;;21.00;nan
14343;BME280;7255;53.596;9.960;2023-05-22T05:52:46;101429.25;;;21.08;nan
14343;BME280;7255;53.596;9.960;2023-05-22T05:55:12;101429.81;;;21.10;nan
14343;BME280;7255;53.596;9.960;2023-05-22T05:57:39;101419.25;;;21.48;nan
14343;BME280;7255;53.596;9.960;2023-05-22T06:00:06;101430.66;;;21.66;nan
14343;BME280;7255;53.596;9.960;2023-05-22T06:02:35;101424.00;;;21.82;nan
14343;BME280;7255;53.596;9.960;2023-05-22T06:05:03;101430.88;;;22.14;nan
14343;BME280;7255;53.596;9.960;2023-05-22T06:07:30;101430.37;;;22.07;nan
14343;BME280;7255;53.596;9.960;2023-05-22T06:09:56;101428.78;;;22.40;nan
14343;BME280;7255;53.596;9.960;2023-05-22T06:12:23;101422.63;;;22.54;nan
14343;BME280;7255;53.596;9.960;2023-05-22T06:14:49;101425.09;;;22.55;nan
14343;BME280;7255;53.596;9.960;2023-05-22T06:17:15;101413.63;;;22.14;nan
14343;BME280;7255;53.596;9.960;2023-05-22T06:19:42;101431.88;;;22.28;nan
14343;BME280;7255;53.596;9.960;2023-05-22T06:22:09;101415.75;;;22.27;nan
14343;BME280;7255;53.596;9.960;2023-05-22T06:24:36;101420.94;;;22.28;nan
14343;BME280;7255;53.596;9.960;2023-05-22T06:27:02;101432.38;;;22.36;nan
14343;BME280;7255;53.596;9.960;2023-05-22T06:29:29;101418.19;;;22.23;nan
14343;BME280;7255;53.596;9.960;2023-05-22T06:31:56;101414.09;;;22.31;nan
14343;BME280;7255;53.596;9.960;2023-05-22T06:34:23;101418.97;;;22.34;nan
14343;BME280;7255;53.596;9.960;2023-05-22T06:36:49;101421.34;;;22.46;nan
14343;BME280;7255;53.596;9.960;2023-05-22T06:39:17;101428.34;;;22.57;nan
14343;BME280;7255;53.596;9.960;2023-05-22T06:41:44;101427.56;;;22.81;nan
14343;BME280;7255;53.596;9.960;2023-05-22T06:44:10;101432.81;;;22.77;nan
14343;BME280;7255;53.596;9.960;2023-05-22T06:46:37;101427.09;;;22.74;nan
14343;BME280;7255;53.596;9.960;2023-05-22T06:49:03;101430.00;;;22.82;nan
14343;BME280;7255;53.596;9.960;2023-05-22T06:51:30;101433.31;;;23.09;nan
14343;BME280;7255;53.596;9.960;2023-05-22T06:53:56;101438.13;;;23.41;nan
14343;BME280;7255;53.596;9.960;2023-05-22T06:56:24;101441.16;;;23.58;nan
14343;BME280;7255;53.596;9.960;2023-05-22T06:58:50;101448.19;;;23.45;nan
14343;BME280;7255;53.596;9.960;2023-05-22T07:01:16;101447.00;;;23.52;nan
14343;BME280;7255;53.596;9.960;2023-05-22T07:03:43;101444.47;;;23.36;nan
14343;BME280;7255;53.596;9.960;2023-05-22T07:06:09;101446.13;;;23.56;nan
14343;BME280;7255;53.596;9.960;2023-05-22T07:08:36;101453.03;;;23.73;nan
14343;BME280;7255;53.596;9.960;2023-05-22T07:11:02;101449.06;;;23.84;nan
14343;BME280;7255;53.596;9.960;2023-05-22T07:13:32;101450.75;;;23.99;nan
14343;BME280;7255;53.596;9.960;2023-05-22T07:15:58;101444.09;;;24.05;nan
14343;BME280;7255;53.596;9.960;2023-05-22T07:18:24;101447.44;;;24.35;nan
14343;BME280;7255;53.596;9.960;2023-05-22T07:20:51;101447.37;;;24.21;nan
14343;BME280;7255;53.596;9.960;2023-05-22T07:23:17;101439.06;;;24.26;nan
14343;BME280;7255;53.596;9.960;2023-05-22T07:25:43;101432.94;;;24.15;nan
14343;BME280;7255;53.596;9.960;2023-05-22T07:28:09;101438.00;;;24.41;nan
14343;BME280;7255;53.596;9.960;2023-05-22T07:30:37;101429.22;;;24.58;nan
14343;BME280;7255;53.596;9.960;2023-05-22T07:33:04;101437.16;;;24.59;nan
14343;BME280;7255;53.596;9.960;2023-05-22T07:35:30;101435.25;;;24.41;nan
14343;BME280;7255;53.596;9.960;2023-05-22T07:37:57;101431.00;;;24.49;nan
14343;BME280;7255;53.596;9.960;2023-05-22T07:40:23;101433.09;;;24.71;nan
14343;BME280;7255;53.596;9.960;2023-05-22T07:42:49;101429.66;;;25.07;nan
14343;BME280;7255;53.596;9.960;2023-05-22T07:45:15;101422.75;;;24.95;nan
14343;BME280;7255;53.596;9.960;2023-05-22T07:47:43;101429.06;;;24.82;nan
14343;BME280;7255;53.596;9.960;2023-05-22T07:50:09;101408.47;;;24.79;nan
14343;BME280;7255;53.596;9.960;2023-05-22T07:52:36;101417.84;;;24.92;nan
14343;BME280;7255;53.596;9.960;2023-05-22T07:55:03;101420.50;;;25.25;nan
14343;BME280;7255;53.596;9.960;2023-05-22T07:57:31;101413.25;;;24.74;nan
14343;BME280;7255;53.596;9.960;2023-05-22T08:00:00;101413.16;;;25.07;nan
14343;BME280;7255;53.596;9.960;2023-05-22T08:02:36;101410.53;;;25.15;nan
14343;BME280;7255;53.596;9.960;2023-05-22T08:05:05;101407.06;;;25.38;nan
14343;BME280;7255;53.596;9.960;2023-05-22T08:07:31;101413.75;;;25.45;nan
14343;BME280;7255;53.596;9.960;2023-05-22T08:09:58;101406.94;;;25.43;nan
14343;BME280;7255;53.596;9.960;2023-05-22T08:12:24;101419.66;;;25.39;nan
14343;BME280;7255;53.596;9.960;2023-05-22T08:14:50;101405.97;;;25.61;nan
14343;BME280;7255;53.596;9.960;2023-05-22T08:17:17;101412.94;;;25.81;nan
14343;BME280;7255;53.596;9.960;2023-05-22T08:19:43;101404.88;;;25.85;nan
14343;BME280;7255;53.596;9.960;2023-05-22T08:22:11;101407.94;;;25.47;nan
14343;BME280;7255;53.596;9.960;2023-05-22T08:24:37;101409.91;;;25.05;nan
14343;BME280;7255;53.596;9.960;2023-05-22T08:27:04;101404.81;;;25.12;nan
14343;BME280;7255;53.596;9.960;2023-05-22T08:29:30;101410.72;;;25.33;nan
14343;BME280;7255;53.596;9.960;2023-05-22T08:31:56;101407.06;;;25.38;nan
14343;BME280;7255;53.596;9.960;2023-05-22T08:34:23;101408.06;;;25.42;nan
14343;BME280;7255;53.596;9.960;2023-05-22T08:36:49;101403.81;;;25.35;nan
14343;BME280;7255;53.596;9.960;2023-05-22T08:39:17;101408.44;;;25.63;nan
14343;BME280;7255;53.596;9.960;2023-05-22T08:41:44;101404.03;;;25.98;nan
14343;BME280;7255;53.596;9.960;2023-05-22T08:44:11;101399.97;;;25.96;nan
14343;BME280;7255;53.596;9.960;2023-05-22T08:46:38;101397.44;;;26.08;nan
14343;BME280;7255;53.596;9.960;2023-05-22T08:49:07;101390.97;;;25.90;nan
14343;BME280;7255;53.596;9.960;2023-05-22T08:51:37;101408.75;;;25.84;nan
14343;BME280;7255;53.596;9.960;2023-05-22T08:54:04;101389.78;;;25.82;nan
14343;BME280;7255;53.596;9.960;2023-05-22T08:56:33;101388.25;;;26.12;nan
14343;BME280;7255;53.596;9.960;2023-05-22T08:59:00;101395.28;;;25.82;nan
14343;BME280;7255;53.596;9.960;2023-05-22T09:01:27;101395.16;;;25.65;nan
14343;BME280;7255;53.596;9.960;2023-05-22T09:03:56;101392.72;;;25.63;nan
14343;BME280;7255;53.596;9.960;2023-05-22T09:06:24;101382.75;;;26.12;nan
14343;BME280;7255;53.596;9.960;2023-05-22T09:08:53;101388.53;;;26.34;nan
14343;BME280;7255;53.596;9.960;2023-05-22T09:11:19;101381.59;;;26.67;nan
14343;BME280;7255;53.596;9.960;2023-05-22T09:13:47;101372.75;;;26.88;nan
14343;BME280;7255;53.596;9.960;2023-05-22T09:16:15;101370.88;;;27.15;nan
14343;BME280;7255;53.596;9.960;2023-05-22T09:18:41;101374.47;;;27.33;nan
14343;BME280;7255;53.596;9.960;2023-05-22T09:21:09;101370.13;;;27.40;nan
14343;BME280;7255;53.596;9.960;2023-05-22T09:23:36;101370.28;;;27.44;nan
14343;BME280;7255;53.596;9.960;2023-05-22T09:26:03;101376.63;;;27.44;nan
14343;BME280;7255;53.596;9.960;2023-05-22T09:28:31;101369.13;;;27.36;nan
14343;BME280;7255;53.596;9.960;2023-05-22T09:30:59;101377.97;;;27.07;nan
14343;BME280;7255;53.596;9.960;2023-05-22T09:33:28;101372.78;;;26.97;nan
14343;BME280;7255;53.596;9.960;2023-05-22T09:35:55;101372.72;;;26.79;nan
14343;BME280;7255;53.596;9.960;2023-05-22T09:38:21;101358.00;;;26.53;nan
14343;BME280;7255;53.596;9.960;2023-05-22T09:40:52;101355.41;;;26.47;nan
14343;BME280;7255;53.596;9.960;2023-05-22T09:43:19;101360.47;;;26.54;nan
14343;BME280;7255;53.596;9.960;2023-05-22T09:45:46;101352.75;;;26.74;nan
14343;BME280;7255;53.596;9.960;2023-05-22T09:48:16;101358.34;;;27.08;nan
14343;BME280;7255;53.596;9.960;2023-05-22T09:50:46;101355.00;;;27.20;nan
14343;BME280;7255;53.596;9.960;2023-05-22T09:53:15;101355.28;;;27.10;nan
14343;BME280;7255;53.596;9.960;2023-05-22T09:55:42;101349.41;;;26.85;nan
14343;BME280;7255;53.596;9.960;2023-05-22T09:58:12;101349.91;;;26.96;nan
14343;BME280;7255;53.596;9.960;2023-05-22T10:00:39;101347.47;;;26.95;nan
14343;BME280;7255;53.596;9.960;2023-05-22T10:03:08;101351.31;;;26.76;nan
14343;BME280;7255;53.596;9.960;2023-05-22T10:05:40;101352.03;;;27.08;nan
14343;BME280;7255;53.596;9.960;2023-05-22T10:08:10;101338.09;;;27.13;nan
14343;BME280;7255;53.596;9.960;2023-05-22T10:10:39;101336.00;;;27.19;nan
14343;BME280;7255;53.596;9.960;2023-05-22T10:13:07;101339.22;;;27.12;nan
14343;BME280;7255;53.596;9.960;2023-05-22T10:15:34;101320.31;;;27.37;nan
14343;BME280;7255;53.596;9.960;2023-05-22T10:18:01;101338.97;;;27.66;nan
14343;BME280;7255;53.596;9.960;2023-05-22T10:20:28;101326.94;;;27.71;nan
14343;BME280;7255;53.596;9.960;2023-05-22T10:22:56;101329.34;;;27.98;nan
14343;BME280;7255;53.596;9.960;2023-05-22T10:25:23;101326.38;;;28.21;nan
14343;BME280;7255;53.596;9.960;2023-05-22T10:27:51;101315.97;;;28.18;nan
14343;BME280;7255;53.596;9.960;2023-05-22T10:30:23;101326.50;;;28.25;nan
14343;BME280;7255;53.596;9.960;2023-05-22T10:32:56;101313.38;;;28.51;nan
14343;BME280;7255;53.596;9.960;2023-05-22T10:35:31;101320.22;;;28.84;nan
14343;BME280;7255;53.596;9.960;2023-05-22T10:38:17;101307.81;;;28.69;nan
14343;BME280;7255;53.596;9.960;2023-05-22T10:40:46;101301.53;;;28.51;nan
14343;BME280;7255;53.596;9.960;2023-05-22T10:43:13;101306.50;;;28.96;nan
14343;BME280;7255;53.596;9.960;2023-05-22T10:45:40;101307.53;;;28.83;nan
14343;BME280;7255;53.596;9.960;2023-05-22T10:48:08;101310.59;;;28.60;nan
14343;BME280;7255;53.596;9.960;2023-05-22T10:50:35;101303.56;;;29.22;nan
14343;BME280;7255;53.596;9.960;2023-05-22T10:53:20;101307.03;;;29.52;nan
14343;BME280;7255;53.596;9.960;2023-05-22T10:55:48;101307.94;;;29.78;nan
14343;BME280;7255;53.596;9.960;2023-05-22T10:58:15;101292.09;;;29.99;nan
14343;BME280;7255;53.596;9.960;2023-05-22T11:00:42;101288.75;;;30.06;nan
14343;BME280;7255;53.596;9.960;2023-05-22T11:03:08;101292.84;;;29.75;nan
14343;BME280;7255;53.596;9.960;2023-05-22T11:05:36;101290.09;;;29.87;nan
14343;BME280;7255;53.596;9.960;2023-05-22T11:08:10;101288.28;;;30.04;nan
14343;BME280;7255;53.596;9.960;2023-05-22T11:10:52;101292.09;;;29.66;nan
14343;BME280;7255;53.596;9.960;2023-05-22T11:13:19;101295.69;;;29.45;nan
14343;BME280;7255;53.596;9.960;2023-05-22T11:15:45;101283.66;;;29.62;nan
14343;BME280;7255;53.596;9.960;2023-05-22T11:18:12;101283.50;;;29.25;nan
14343;BME280;7255;53.596;9.960;2023-05-22T11:20:39;101275.41;;;29.74;nan
14343;BME280;7255;53.596;9.960;2023-05-22T11:23:06;101263.72;;;30.27;nan
14343;BME280;7255;53.596;9.960;2023-05-22T11:25:34;101264.53;;;30.52;nan
14343;BME280;7255;53.596;9.960;2023-05-22T11:28:04;101267.50;;;30.96;nan
14343;BME280;7255;53.596;9.960;2023-05-22T11:30:31;101267.31;;;31.45;nan
14343;BME280;7255;53.596;9.960;2023-05-22T11:33:00;101265.06;;;30.95;nan
14343;BME280;7255;53.596;9.960;2023-05-22T11:35:27;101266.47;;;30.14;nan
14343;BME280;7255;53.596;9.960;2023-05-22T11:37:54;101264.28;;;30.69;nan
14343;BME280;7255;53.596;9.960;2023-05-22T11:40:22;101252.00;;;30.95;nan
14343;BME280;7255;53.596;9.960;2023-05-22T11:42:49;101259.53;;;31.23;nan
14343;BME280;7255;53.596;9.960;2023-05-22T11:45:17;101254.78;;;30.83;nan
14343;BME280;7255;53.596;9.960;2023-05-22T11:47:44;101263.16;;;31.39;nan
14343;BME280;7255;53.596;9.960;2023-05-22T11:50:11;101251.94;;;31.20;nan
14343;BME280;7255;53.596;9.960;2023-05-22T11:52:39;101251.94;;;31.36;nan
14343;BME280;7255;53.596;9.960;2023-05-22T11:55:07;101249.25;;;31.52;nan
14343;BME280;7255;53.596;9.960;2023-05-22T11:57:34;101235.19;;;31.32;nan
14343;BME280;7255;53.596;9.960;2023-05-22T12:00:00;101234.63;;;31.11;nan
14343;BME280;7255;53.596;9.960;2023-05-22T12:02:29;101225.75;;;31.05;nan
14343;BME280;7255;53.596;9.960;2023-05-22T12:04:56;101222.41;;;30.99;nan
14343;BME280;7255;53.596;9.960;2023-05-22T12:07:23;101226.44;;;30.49;nan
14343;BME280;7255;53.596;9.960;2023-05-22T12:09:51;101223.13;;;30.71;nan
14343;BME280;7255;53.596;9.960;2023-05-22T12:12:19;101217.81;;;31.19;nan
14343;BME280;7255;53.596;9.960;2023-05-22T12:14:47;101225.78;;;30.93;nan
14343;BME280;7255;53.596;9.960;2023-05-22T12:17:15;101206.66;;;31.60;nan
14343;BME280;7255;53.596;9.960;2023-05-22T12:19:43;101218.03;;;32.02;nan
14343;BME280;7255;53.596;9.960;2023-05-22T12:22:11;101216.97;;;32.58;nan
14343;BME280;7255;53.596;9.960;2023-05-22T12:24:39;101213.41;;;32.77;nan
14343;BME280;7255;53.596;9.960;2023-05-22T12:27:07;101217.50;;;32.84;nan
14343;BME280;7255;53.596;9.960;2023-05-22T12:29:34;101222.12;;;33.15;nan
14343;BME280;7255;53.596;9.960;2023-05-22T12:32:01;101218.41;;;33.27;nan
14343;BME280;7255;53.596;9.960;2023-05-22T12:34:31;101217.34;;;33.12;nan
14343;BME280;7255;53.596;9.960;2023-05-22T12:37:00;101218.16;;;33.35;nan
14343;BME280;7255;53.596;9.960;2023-05-22T12:39:27;101218.19;;;33.16;nan
14343;BME280;7255;53.596;9.960;2023-05-22T12:41:54;101218.75;;;32.67;nan
14343;BME280;7255;53.596;9.960;2023-05-22T12:44:20;101206.75;;;33.02;nan
14343;BME280;7255;53.596;9.960;2023-05-22T12:46:47;101211.94;;;33.23;nan
14343;BME280;7255;53.596;9.960;2023-05-22T12:49:13;101202.50;;;32.53;nan
14343;BME280;7255;53.596;9.960;2023-05-22T12:51:39;101189.91;;;31.56;nan
14343;BME280;7255;53.596;9.960;2023-05-22T12:54:07;101189.34;;;31.98;nan
14343;BME280;7255;53.596;9.960;2023-05-22T12:56:33;101185.84;;;32.17;nan
14343;BME280;7255;53.596;9.960;2023-05-22T12:59:00;101184.94;;;31.81;nan
14343;BME280;7255;53.596;9.960;2023-05-22T13:01:26;101177.59;;;32.05;nan
14343;BME280;7255;53.596;9.960;2023-05-22T13:03:52;101178.78;;;32.75;nan
14343;BME280;7255;53.596;9.960;2023-05-22T13:06:19;101188.28;;;32.93;nan
14343;BME280;7255;53.596;9.960;2023-05-22T13:08:45;101168.13;;;32.41;nan
14343;BME280;7255;53.596;9.960;2023-05-22T13:11:13;101172.47;;;32.58;nan
14343;BME280;7255;53.596;9.960;2023-05-22T13:13:39;101166.00;;;32.54;nan
14343;BME280;7255;53.596;9.960;2023-05-22T13:16:06;101169.37;;;32.44;nan
14343;BME280;7255;53.596;9.960;2023-05-22T13:18:32;101173.94;;;32.91;nan
14343;BME280;7255;53.596;9.960;2023-05-22T13:20:58;101163.63;;;33.54;nan
14343;BME280;7255;53.596;9.960;2023-05-22T13:23:25;101156.22;;;32.99;nan